< < Back
Terminal Aerodrome Forecast


Current Version              Previous Versions:   1  2  3  4  5  6  7  8  9  

Terminal Aerodrome Forecast

497
FTUS42 KJAX 242320
TAFGNV
TAF
KGNV 242320Z 2500/2524 10008KT P6SM SCT250
     FM250200 VRB03KT P6SM FEW250
     FM251500 11010KT P6SM SCT060=

Latest METAR

082
SAUS70 KWBC 250500
MTRGNV
METAR KGNV 250453Z AUTO 11003KT 10SM CLR 19/15 A3019 RMK AO2 SLPNO
T01890150 403170189 TSNO


USA.gov is the U.S. government's official web portal to all federal, state and local government web resources and services.